Circle Line Xii — WM8392 — position and weather

sailwx.info

Track history (hours):
 
Tides and Currents Weather Stations Pressure Air Temp Water Temp Dewpoint Dewpoint Depression Visibility Wind Speed Wind Dir Waves Ship Positions

Circle Line Xii

Owner: CIRCLE LINE SIGHTSEEING YACHTS, NEW YORK, NY. More information available from US FCC via Universal Licensing System and Coast Guard Vessel Documentation Center.

Last reported at 2015-May-25 20:33 UTC. Time now 2015-May-25 21:24 UTC.
Position N 40°43' W 073°58'.

MMSI: 367032250.

Date/timePositionNaut miles runAvg speedWind from/ knotsBaromVisibWave heightAir tempDewpointWater temp
2015-May-25 20:33N 40°43' W 073°58'3 2.8
2015-May-25 19:33N 40°46' W 074°00'2 2.2
2015-May-25 18:33N 40°44' W 074°01'2 2.3
2015-May-25 17:33N 40°42' W 074°02'2 0.0
2015-May-24 00:33N 40°43' W 074°01'2 2.3
2015-May-23 23:33N 40°41' W 074°03'5 4.7
2015-May-23 22:31N 40°46' W 074°00'0 0.0
2015-May-23 21:31N 40°46' W 074°00'0 0.0
2015-May-23 20:28N 40°46' W 074°00'0 0.0
2015-May-23 19:32N 40°46' W 074°00'1 1.2
2015-May-23 18:33N 40°47' W 073°60'2 1.6
2015-May-23 17:08N 40°45' W 073°58'5 8.2
2015-May-23 16:33N 40°42' W 074°02'4 3.6
2015-May-23 15:28N 40°46' W 074°00'0 0.0
2015-May-23 14:33N 40°46' W 074°00'0 0.0
2015-May-22 21:34N 40°46' W 074°00'0 0.3
2015-May-22 20:32N 40°46' W 074°00'0 0.0
2015-May-22 19:32N 40°46' W 074°00'2 1.6
2015-May-22 18:33N 40°47' W 073°59'2 1.6
2015-May-22 17:11N 40°46' W 073°57'6 9.2
2015-May-22 16:33N 40°42' W 074°02'5 4.4
2015-May-22 15:32N 40°46' W 074°00'0 0.0
2015-May-21 19:32N 40°46' W 074°00'0 0.0
2015-May-21 18:33N 40°46' W 074°00'0 0.0
2015-May-21 17:31N 40°46' W 074°00'2 2.0
2015-May-21 16:33N 40°44' W 074°01'1 0.1
2015-May-20 19:33N 40°45' W 074°01'1 0.5
2015-May-20 18:32N 40°46' W 074°00'0 0.0
2015-May-20 17:32N 40°46' W 074°00'3 3.1
2015-May-20 16:33N 40°43' W 074°01'1 1.0
2015-May-20 15:33N 40°42' W 074°02'4 3.9
2015-May-20 14:32N 40°46' W 074°00'0 0.0
2015-May-20 01:05N 40°46' W 074°00'4 7.4
2015-May-20 00:33N 40°42' W 074°01'1 1.0
2015-May-19 23:33N 40°42' W 074°02'4 3.5
2015-May-19 22:31N 40°46' W 074°00'0 0.0
2015-May-19 21:31N 40°46' W 074°00'0 0.0
2015-May-19 20:31N 40°46' W 074°00'0 0.0
2015-May-19 19:31N 40°46' W 074°00'0 0.0
2015-May-19 18:31N 40°46' W 074°00'0 0.0
2015-May-19 17:31N 40°46' W 074°00'1 0.7
2015-May-19 16:33N 40°45' W 074°01'1 1.4
2015-May-19 15:33N 40°44' W 074°01'2 2.0
2015-May-19 14:32N 40°46' W 074°00'3 0.2
2015-May-19 00:33N 40°43' W 074°01'1 1.3
2015-May-18 23:33N 40°42' W 074°02'5 4.5
2015-May-18 22:33N 40°46' W 074°00'0 0.0
2015-May-18 21:33N 40°46' W 074°00'2 2.5
2015-May-18 20:33N 40°44' W 073°58'2 2.4
2015-May-18 19:33N 40°46' W 074°00'2 2.5
2015-May-18 18:33N 40°43' W 074°01'3 2.6
2015-May-18 17:33N 40°41' W 074°03'5 4.9
2015-May-18 16:31N 40°46' W 074°00'0 0.0
2015-May-16 23:11N 40°46' W 074°00'0 0.0
2015-May-16 22:32N 40°46' W 074°00'0 0.0
2015-May-16 21:32N 40°46' W 074°00'0 0.0
2015-May-16 20:31N 40°46' W 074°00'17191718.1
2015-May-16 19:31N 40°46' W 111°50'17191800.4
2015-May-16 18:33N 40°48' W 073°59'3 2.3
2015-May-16 17:24N 40°46' W 073°57'6 6.9
2015-May-16 16:34N 40°42' W 074°02'17181578.4
2015-May-16 15:28N 40°46' W 111°50'17181884.1
2015-May-16 14:33N 40°41' W 074°03'5 5.0
2015-May-16 13:32N 40°46' W 074°00'  
Track history (hours):
 
Tides and Currents Weather Stations Pressure Air Temp Water Temp Dewpoint Dewpoint Depression Visibility Wind Speed Wind Dir Waves Ship Positions

Circle Line Xii

Owner: CIRCLE LINE SIGHTSEEING YACHTS, NEW YORK, NY. More information available from US FCC via Universal Licensing System and Coast Guard Vessel Documentation Center.

Last reported at 2015-May-25 20:33 UTC. Time now 2015-May-25 21:24 UTC.
Position N 40°43' W 073°58'.

MMSI: 367032250.

Date/timePositionNaut miles runAvg speedWind from/ knotsBaromVisibWave heightAir tempDewpointWater temp
2015-May-25 20:33N 40°43' W 073°58'3 2.8
2015-May-25 19:33N 40°46' W 074°00'2 2.2
2015-May-25 18:33N 40°44' W 074°01'2 2.3
2015-May-25 17:33N 40°42' W 074°02'2 0.0
2015-May-24 00:33N 40°43' W 074°01'2 2.3
2015-May-23 23:33N 40°41' W 074°03'5 4.7
2015-May-23 22:31N 40°46' W 074°00'0 0.0
2015-May-23 21:31N 40°46' W 074°00'0 0.0
2015-May-23 20:28N 40°46' W 074°00'0 0.0
2015-May-23 19:32N 40°46' W 074°00'1 1.2
2015-May-23 18:33N 40°47' W 073°60'2 1.6
2015-May-23 17:08N 40°45' W 073°58'5 8.2
2015-May-23 16:33N 40°42' W 074°02'4 3.6
2015-May-23 15:28N 40°46' W 074°00'0 0.0
2015-May-23 14:33N 40°46' W 074°00'0 0.0
2015-May-22 21:34N 40°46' W 074°00'0 0.3
2015-May-22 20:32N 40°46' W 074°00'0 0.0
2015-May-22 19:32N 40°46' W 074°00'2 1.6
2015-May-22 18:33N 40°47' W 073°59'2 1.6
2015-May-22 17:11N 40°46' W 073°57'6 9.2
2015-May-22 16:33N 40°42' W 074°02'5 4.4
2015-May-22 15:32N 40°46' W 074°00'0 0.0
2015-May-21 19:32N 40°46' W 074°00'0 0.0
2015-May-21 18:33N 40°46' W 074°00'0 0.0
2015-May-21 17:31N 40°46' W 074°00'2 2.0
2015-May-21 16:33N 40°44' W 074°01'1 0.1
2015-May-20 19:33N 40°45' W 074°01'1 0.5
2015-May-20 18:32N 40°46' W 074°00'0 0.0
2015-May-20 17:32N 40°46' W 074°00'3 3.1
2015-May-20 16:33N 40°43' W 074°01'1 1.0
2015-May-20 15:33N 40°42' W 074°02'4 3.9
2015-May-20 14:32N 40°46' W 074°00'0 0.0
2015-May-20 01:05N 40°46' W 074°00'4 7.4
2015-May-20 00:33N 40°42' W 074°01'1 1.0
2015-May-19 23:33N 40°42' W 074°02'4 3.5
2015-May-19 22:31N 40°46' W 074°00'0 0.0
2015-May-19 21:31N 40°46' W 074°00'0 0.0
2015-May-19 20:31N 40°46' W 074°00'0 0.0
2015-May-19 19:31N 40°46' W 074°00'0 0.0
2015-May-19 18:31N 40°46' W 074°00'0 0.0
2015-May-19 17:31N 40°46' W 074°00'1 0.7
2015-May-19 16:33N 40°45' W 074°01'1 1.4
2015-May-19 15:33N 40°44' W 074°01'2 2.0
2015-May-19 14:32N 40°46' W 074°00'3 0.2
2015-May-19 00:33N 40°43' W 074°01'1 1.3
2015-May-18 23:33N 40°42' W 074°02'5 4.5
2015-May-18 22:33N 40°46' W 074°00'0 0.0
2015-May-18 21:33N 40°46' W 074°00'2 2.5
2015-May-18 20:33N 40°44' W 073°58'2 2.4
2015-May-18 19:33N 40°46' W 074°00'2 2.5
2015-May-18 18:33N 40°43' W 074°01'3 2.6
2015-May-18 17:33N 40°41' W 074°03'5 4.9
2015-May-18 16:31N 40°46' W 074°00'0 0.0
2015-May-16 23:11N 40°46' W 074°00'0 0.0
2015-May-16 22:32N 40°46' W 074°00'0 0.0
2015-May-16 21:32N 40°46' W 074°00'0 0.0
2015-May-16 20:31N 40°46' W 074°00'17191718.1
2015-May-16 19:31N 40°46' W 111°50'17191800.4
2015-May-16 18:33N 40°48' W 073°59'3 2.3
2015-May-16 17:24N 40°46' W 073°57'6 6.9
2015-May-16 16:34N 40°42' W 074°02'17181578.4
2015-May-16 15:28N 40°46' W 111°50'17181884.1
2015-May-16 14:33N 40°41' W 074°03'5 5.0
2015-May-16 13:32N 40°46' W 074°00'  

Dump ship's entire track history